createdAt,value
2023-01-12T07:26:11.671Z,95916.53
2023-01-12T07:28:42.706Z,95921.69
2023-01-12T07:31:12.382Z,95921.31
2023-01-12T07:33:41.806Z,95911.47
2023-01-12T07:36:11.416Z,95914.31
2023-01-12T07:38:42.548Z,95908.81
2023-01-12T07:41:34.041Z,95904.97
2023-01-12T07:44:10.879Z,95898.97
2023-01-12T07:46:40.322Z,95887.50
2023-01-12T07:49:09.743Z,95889.66
2023-01-12T07:51:39.679Z,95891.94
2023-01-12T07:54:10.173Z,95884.69
2023-01-12T07:56:42.961Z,95881.91
2023-01-12T07:59:13.578Z,95882.13
2023-01-12T08:01:43.087Z,95879.22
2023-01-12T08:04:12.557Z,95882.34
2023-01-12T08:06:42.004Z,95880.00
2023-01-12T08:09:11.503Z,95863.03
2023-01-12T08:11:42.336Z,95867.50
2023-01-12T08:14:25.388Z,95858.25
2023-01-12T08:16:56.600Z,95862.31
2023-01-12T08:19:32.110Z,95858.28
2023-01-12T08:22:03.153Z,95852.41
2023-01-12T08:24:37.290Z,95853.47
2023-01-12T08:27:10.360Z,95860.59
2023-01-12T08:29:44.668Z,95848.69
2023-01-12T08:32:18.391Z,95856.53
2023-01-12T08:34:52.169Z,95860.16
2023-01-12T08:37:25.612Z,95867.16
2023-01-12T08:39:55.019Z,95864.22
2023-01-12T08:42:27.968Z,95867.34
2023-01-12T08:44:58.227Z,95869.78
2023-01-12T08:47:30.707Z,95880.72
2023-01-12T08:50:01.736Z,95875.84
2023-01-12T08:52:32.598Z,95887.00
2023-01-12T08:55:02.167Z,95864.47
2023-01-12T08:57:33.482Z,95868.44
2023-01-12T09:00:03.413Z,95857.78
2023-01-12T09:02:33.108Z,95862.53
2023-01-12T09:05:02.493Z,95855.00
2023-01-12T09:07:33.084Z,95863.34
2023-01-12T09:10:02.446Z,95859.41
2023-01-12T09:12:33.176Z,95865.19
2023-01-12T09:15:02.578Z,95865.56
2023-01-12T09:17:32.021Z,95868.03
2023-01-12T09:20:01.420Z,95861.66
2023-01-12T09:22:30.997Z,95862.19
2023-01-12T09:25:00.405Z,95863.25
2023-01-12T09:27:29.979Z,95855.56
2023-01-12T09:30:00.703Z,95852.09
2023-01-12T09:32:36.801Z,95861.94
2023-01-12T09:35:08.379Z,95854.38
2023-01-12T09:37:38.007Z,95866.28
2023-01-12T09:40:13.897Z,95860.47
2023-01-12T09:43:08.447Z,95853.84
2023-01-12T09:45:56.809Z,95865.81
2023-01-12T09:48:26.698Z,95861.47
2023-01-12T09:51:05.143Z,95865.19
2023-01-12T09:53:38.458Z,95861.31
2023-01-12T09:56:16.930Z,95848.13
2023-01-12T09:59:22.995Z,95832.25
2023-01-12T10:01:57.027Z,95824.13
2023-01-12T10:04:27.093Z,95824.47
2023-01-12T10:06:57.273Z,95826.16
2023-01-12T10:09:52.027Z,95838.09
2023-01-12T10:12:31.587Z,95831.38
2023-01-12T10:15:30.947Z,95843.31
2023-01-12T10:18:10.555Z,95824.47
2023-01-12T10:20:43.933Z,95830.16
2023-01-12T10:23:19.284Z,95833.75
2023-01-12T10:25:51.346Z,95826.63
2023-01-12T10:28:27.460Z,95827.41
2023-01-12T10:30:58.905Z,95832.75
2023-01-12T10:33:32.997Z,95817.56
2023-01-12T10:36:09.633Z,95820.09
2023-01-12T10:38:56.602Z,95808.06
2023-01-12T10:41:27.759Z,95785.00
2023-01-12T10:44:16.266Z,95801.34
2023-01-12T18:25:20.834Z,95601.94
2023-01-12T18:27:50.349Z,95604.94
2023-01-12T18:30:20.264Z,95618.09
2023-01-12T18:32:49.725Z,95597.00
2023-01-12T18:35:19.210Z,95600.16
2023-01-12T18:37:48.605Z,95580.63
2023-01-12T18:40:18.195Z,95588.25
2023-01-12T18:42:50.741Z,95590.44
2023-01-12T18:45:21.328Z,95579.41
2023-01-12T18:48:08.217Z,95577.53
2023-01-12T18:50:55.270Z,95568.22
2023-01-12T18:53:25.359Z,95569.75
2023-01-12T18:55:57.174Z,95556.72
2023-01-12T18:58:32.847Z,95554.44
2023-01-12T19:01:05.861Z,95558.16
2023-01-12T19:03:36.421Z,95557.66
2023-01-12T19:06:22.493Z,95555.00
2023-01-12T19:09:10.934Z,95552.16
2023-01-12T19:11:41.476Z,95560.28
2023-01-12T19:14:29.995Z,95549.00
2023-01-12T19:17:16.982Z,95546.75
2023-01-12T19:19:46.606Z,95560.59
2023-01-12T19:22:33.592Z,95541.38
2023-01-12T19:25:20.515Z,95546.50
2023-01-12T19:28:07.465Z,95546.41
2023-01-12T19:30:38.485Z,95550.91
2023-01-12T19:33:08.460Z,95553.63
2023-01-12T19:35:40.079Z,95551.03
2023-01-12T19:38:11.999Z,95554.75
2023-01-12T19:40:46.502Z,95538.03
2023-01-12T19:43:21.009Z,95544.75
2023-01-12T19:45:54.848Z,95544.19
2023-01-12T19:48:26.722Z,95539.50
2023-01-12T19:50:56.397Z,95534.78
2023-01-12T19:53:27.051Z,95533.09
2023-01-12T19:55:56.457Z,95534.63
2023-01-12T19:58:27.261Z,95522.41
2023-01-12T20:00:58.110Z,95532.78
2023-01-12T20:03:27.519Z,95522.47
2023-01-12T20:05:56.872Z,95519.81
2023-01-12T20:08:27.017Z,95529.22
2023-01-12T20:10:59.367Z,95516.53
2023-01-12T20:13:29.266Z,95514.91
2023-01-12T20:16:00.131Z,95509.06
2023-01-12T20:18:29.602Z,95512.94
2023-01-12T20:21:00.943Z,95501.28
2023-01-12T20:23:30.492Z,95510.13
2023-01-12T20:25:59.888Z,95499.09
2023-01-12T20:28:29.297Z,95501.78
2023-01-12T20:31:00.147Z,95506.31
2023-01-12T20:33:29.579Z,95497.66
2023-01-12T20:36:00.908Z,95499.44
2023-01-12T20:38:30.655Z,95500.59
2023-01-12T20:41:00.634Z,95503.25
2023-01-12T20:43:30.041Z,95495.03
2023-01-12T20:46:01.291Z,95492.56
2023-01-12T20:48:30.664Z,95492.81
2023-01-12T20:51:01.116Z,95488.19
2023-01-12T20:53:31.620Z,95497.97
2023-01-12T20:56:01.309Z,95495.72
2023-01-12T20:58:30.716Z,95496.53
2023-01-12T21:01:01.548Z,95489.81
2023-01-12T21:03:31.067Z,95496.22
2023-01-12T21:06:01.027Z,95494.19
2023-01-12T21:08:30.413Z,95506.41
2023-01-12T21:11:00.532Z,95500.50
2023-01-12T21:13:29.986Z,95502.78
2023-01-12T21:16:02.893Z,95505.50
2023-01-12T21:18:32.930Z,95502.91
2023-01-12T21:21:02.638Z,95499.66
2023-01-12T21:23:32.321Z,95511.25
2023-01-12T21:26:01.923Z,95512.31
2023-01-12T21:28:31.271Z,95505.50
2023-01-12T21:31:04.185Z,95503.88
2023-01-12T21:33:34.385Z,95493.72
2023-01-12T21:36:04.492Z,95495.41
2023-01-12T21:38:34.170Z,95500.94
2023-01-12T21:41:05.888Z,95496.47
2023-01-12T21:43:35.792Z,95501.19
2023-01-12T21:46:10.553Z,95495.47
2023-01-12T21:48:40.008Z,95493.94
2023-01-12T21:51:14.656Z,95496.13
2023-01-12T21:53:45.168Z,95494.28
2023-01-12T21:56:15.097Z,95495.91
2023-01-12T21:58:45.735Z,95489.50
2023-01-12T22:01:16.844Z,95504.00
2023-01-12T22:03:46.388Z,95497.91
2023-01-12T22:06:15.874Z,95489.88
2023-01-12T22:08:45.465Z,95503.56
2023-01-12T22:11:18.269Z,95487.88
2023-01-12T22:13:48.544Z,95490.03
2023-01-12T22:16:19.724Z,95490.44
2023-01-12T22:18:52.372Z,95483.78
2023-01-12T22:21:22.789Z,95483.34
2023-01-12T22:23:52.272Z,95484.84
2023-01-12T22:26:22.118Z,95488.00
2023-01-12T22:28:51.515Z,95477.38
2023-01-12T22:31:25.080Z,95478.66
2023-01-12T22:34:02.715Z,95470.63
2023-01-12T22:36:35.334Z,95465.69
2023-01-12T22:39:05.657Z,95452.59
2023-01-12T22:41:35.215Z,95460.56
2023-01-12T22:44:05.178Z,95475.00
2023-01-12T22:46:36.929Z,95479.03
2023-01-12T22:49:07.269Z,95474.50
2023-01-12T22:51:39.009Z,95485.50
2023-01-12T22:54:08.435Z,95483.59
2023-01-12T22:56:38.452Z,95471.59
2023-01-12T22:59:09.750Z,95470.75
2023-01-12T23:01:40.773Z,95461.19
2023-01-12T23:04:12.690Z,95465.00
2023-01-12T23:06:42.601Z,95465.75
2023-01-12T23:09:12.601Z,95457.09
2023-01-12T23:11:42.063Z,95465.19
2023-01-12T23:14:11.520Z,95466.81
2023-01-12T23:16:42.247Z,95475.72
2023-01-12T23:19:12.237Z,95474.66
2023-01-12T23:21:43.573Z,95455.34
2023-01-12T23:24:12.936Z,95458.81
2023-01-12T23:26:42.265Z,95453.97
2023-01-12T23:29:11.754Z,95451.50
2023-01-12T23:31:43.337Z,95455.78
2023-01-12T23:34:13.435Z,95457.66
2023-01-12T23:36:43.100Z,95457.66
2023-01-12T23:39:12.940Z,95445.94
2023-01-12T23:41:42.412Z,95433.34
2023-01-12T23:44:11.994Z,95433.09
2023-01-12T23:46:43.078Z,95423.66
2023-01-12T23:49:12.685Z,95441.03
2023-01-12T23:51:42.111Z,95432.00
2023-01-12T23:54:17.617Z,95436.03
2023-01-12T23:56:47.028Z,95429.56
2023-01-12T23:59:16.420Z,95429.69
